Pagrindinis puslapis
METAR-TAF:

METAR-TAF

Oro uostai :

Samujis, Tailandas

platuma: 09-32-52N, ilguma: 100-03-44E, Aukštis: 20 m

Dabartinis oras

Ataskaita buvo paskelbta 23 minutes, ne 09:00 UTC
Vėjas 8 kt iš Rytų
Temperatūra 28°C
Drėgmė 70%
Slėgis 1011 hPa
Matomumas 10 km arba daugiau
Mažai debesys ne aukštis 2000 ft

METAR: VTSM 170900Z 09008KT 9999 FEW020 28/22 Q1011

Laikas: 16:23 (09:23 UTC)

Prognozė

Ataskaita buvo paskelbta 4 valandos ir 23 minutes, ne 05:00 UTC
Prognozė galioja nuo 17 metu 06 UTC su 18 metu 06 UTC
Vėjas 12 kt iš Rytų/Pietryčių
Matomumas 10 km arba daugiau
Mažai debesys ne aukštis 2000 ft

TAF: VTSM 170500Z 1706/1806 12012KT 9999 FEW020

Orai ataskaitas ir orų prognozės (METAR, TAF).

turimą stotys yra geltonos ir raudonos taškus žemėlapyje.

Perkelti pele per norėdami pamatyti stoties vardą.

Tada spustelėkite, norėdami matyti oro stebėjimo ir prognozės.

Norėdami pakeisti žemėlapį: spustelėkite ant žalios mygtukų su juodo kryžiaus žemyn,; žalią mygtuką su brūkšneliu, jei norite nutolinti; arba žalių rodyklių gretimoms žemėlapius.


METAR-TAF: